Time;durP1;ratioP1;P1;durP2;ratioP2;P2;SDS_P1;SDS_P2;PMS_P1;PMS_P2;Temp;Humidity;BMP_temperature;BMP_pressure;BME280_temperature;BME280_humidity;BME280_pressure;Samples;Min_cycle;Max_cycle;Signal;HPM_P1;HPM_P2
2022/10/10 00:01:12;;;;;;;5.97;2.85;;;10.30;76.70;;;8.72;100.00;96181.13;4916052;28;20134;-66
2022/10/10 00:03:38;;;;;;;3.63;2.35;;;10.40;76.90;;;8.73;100.00;96186.19;4907913;28;20063;-67
2022/10/10 00:06:04;;;;;;;6.78;3.22;;;10.30;76.90;;;8.72;100.00;96183.75;4893272;28;20098;-67
2022/10/10 00:08:30;;;;;;;5.20;2.83;;;10.30;76.90;;;8.73;100.00;96180.13;4901114;28;20141;-67
2022/10/10 00:10:56;;;;;;;7.28;3.13;;;10.40;77.00;;;8.71;100.00;96176.88;4927947;28;20066;-66
2022/10/10 00:13:21;;;;;;;5.70;2.88;;;10.30;77.00;;;8.68;100.00;96175.41;4910868;28;20074;-66
2022/10/10 00:15:47;;;;;;;6.03;3.25;;;10.30;77.10;;;8.68;100.00;96177.22;4901600;29;20040;-67
2022/10/10 00:18:13;;;;;;;5.45;2.70;;;10.30;77.20;;;8.66;100.00;96179.19;4899925;28;20183;-66
2022/10/10 00:20:38;;;;;;;5.65;2.78;;;10.20;77.30;;;8.65;100.00;96177.56;4901888;28;20082;-67
2022/10/10 00:23:04;;;;;;;5.80;2.80;;;10.20;77.00;;;8.59;100.00;96174.63;4903481;28;20064;-67
2022/10/10 00:25:30;;;;;;;4.88;2.88;;;10.10;77.20;;;8.55;100.00;96169.91;4903275;28;20147;-69
2022/10/10 00:27:59;;;;;;;6.70;2.97;;;10.10;77.30;;;8.52;100.00;96176.34;4905050;28;20127;-68
2022/10/10 00:30:25;;;;;;;6.43;2.75;;;10.10;77.40;;;8.49;100.00;96181.94;4908355;28;20028;-69
2022/10/10 00:32:51;;;;;;;5.53;3.20;;;10.00;77.60;;;8.44;100.00;96175.56;4904213;28;20580;-69
2022/10/10 00:35:17;;;;;;;6.15;2.80;;;9.90;77.70;;;8.41;100.00;96171.50;4880038;28;20436;-69
2022/10/10 00:37:42;;;;;;;4.88;3.20;;;9.90;77.80;;;8.37;100.00;96170.19;4919630;28;20578;-68
2022/10/10 00:40:09;;;;;;;4.70;3.17;;;9.90;78.00;;;8.34;100.00;96175.78;4889357;28;20068;-69
2022/10/10 00:42:35;;;;;;;8.73;3.22;;;9.90;78.00;;;8.29;100.00;96173.66;4903137;28;20024;-68
2022/10/10 00:45:21;;;;;;;6.05;3.60;;;9.80;78.20;;;8.26;100.00;96174.00;4900978;28;20113;-69
2022/10/10 00:47:46;;;;;;;4.57;3.15;;;9.80;78.20;;;8.24;100.00;96169.94;4912492;28;21677;-66
2022/10/10 00:50:12;;;;;;;6.70;2.92;;;9.80;78.20;;;8.20;100.00;96168.66;4898508;28;20068;-67
2022/10/10 00:52:38;;;;;;;6.20;3.20;;;9.80;78.20;;;8.19;100.00;96169.63;4888243;28;20567;-66
2022/10/10 00:55:04;;;;;;;5.30;3.22;;;9.80;78.30;;;8.20;100.00;96171.28;4923272;28;20500;-67
2022/10/10 00:57:30;;;;;;;4.28;3.30;;;9.80;78.60;;;8.24;100.00;96164.69;4920320;28;20133;-66
2022/10/10 00:59:56;;;;;;;6.97;3.60;;;9.90;78.70;;;8.28;100.00;96164.16;4901455;28;20075;-66
2022/10/10 01:02:22;;;;;;;8.45;3.40;;;10.00;79.00;;;8.34;100.00;96167.91;4899599;28;20118;-67
2022/10/10 01:04:47;;;;;;;10.05;3.92;;;10.10;78.70;;;8.39;100.00;96163.00;4913646;28;20523;-66
2022/10/10 01:07:18;;;;;;;12.32;4.30;;;10.10;78.50;;;8.43;100.00;96159.03;4912551;28;21034;-67
2022/10/10 01:09:44;;;;;;;7.00;3.47;;;10.10;78.70;;;8.48;100.00;96156.69;4899993;28;20046;-67
2022/10/10 01:12:37;;;;;;;6.95;3.50;;;10.20;78.90;;;8.54;100.00;96156.00;4904440;29;20076;-67
2022/10/10 01:15:14;;;;;;;6.45;3.28;;;10.30;78.70;;;8.57;100.00;96153.03;4900470;28;20048;-67
2022/10/10 01:17:58;;;;;;;6.68;3.63;;;10.30;78.40;;;8.63;100.00;96155.97;4907348;28;20120;-66
2022/10/10 01:21:01;;;;;;;7.60;3.38;;;10.40;78.40;;;8.69;100.00;96147.38;4905198;28;20040;-67
2022/10/10 01:24:04;;;;;;;8.73;3.75;;;10.40;78.70;;;8.74;100.00;96150.28;4920697;28;20032;-67
2022/10/10 01:27:07;;;;;;;6.15;3.60;;;10.50;78.80;;;8.78;100.00;96151.56;4900268;28;20393;-66
2022/10/10 01:29:46;;;;;;;6.50;3.20;;;10.50;78.80;;;8.80;100.00;96154.81;4898740;28;20064;-66
2022/10/10 01:32:14;;;;;;;7.10;3.70;;;10.50;79.00;;;8.83;100.00;96146.63;4902835;28;20162;-66
2022/10/10 01:35:12;;;;;;;7.43;3.55;;;10.60;79.00;;;8.85;100.00;96142.00;4901388;28;20047;-66
2022/10/10 01:38:03;;;;;;;9.13;3.67;;;10.60;79.30;;;8.88;100.00;96146.91;4913035;28;20044;-66
2022/10/10 01:41:02;;;;;;;11.02;4.57;;;10.60;79.40;;;8.93;100.00;96143.75;4900265;28;20068;-66
2022/10/10 01:43:28;;;;;;;8.52;4.40;;;10.60;79.80;;;8.94;100.00;96151.44;4896670;29;20759;-67
2022/10/10 01:45:54;;;;;;;8.45;4.38;;;10.70;79.90;;;8.94;100.00;96151.44;4918069;28;20048;-66
2022/10/10 01:48:24;;;;;;;8.30;4.60;;;10.60;80.30;;;8.95;100.00;96142.56;4916389;28;20073;-66
2022/10/10 01:51:20;;;;;;;11.53;5.50;;;10.60;80.50;;;8.96;100.00;96138.94;4949244;28;20109;-67
2022/10/10 01:54:06;;;;;;;19.35;6.68;;;10.70;80.90;;;8.98;100.00;96147.47;4899318;28;20045;-66
2022/10/10 01:56:47;;;;;;;16.30;7.07;;;10.60;81.30;;;8.97;100.00;96151.06;4916146;28;20500;-66
2022/10/10 01:59:18;;;;;;;;;;;10.70;81.50;;;8.95;100.00;96150.44;4883928;28;20044;-66
2022/10/10 02:02:17;;;;;;;23.73;7.78;;;10.60;81.70;;;8.94;100.00;96142.75;4906501;28;20276;-66
2022/10/10 02:05:05;;;;;;;25.67;7.32;;;10.60;81.90;;;8.95;100.00;96147.00;4903761;28;20040;-66
2022/10/10 02:07:53;;;;;;;17.90;7.43;;;10.60;82.00;;;8.96;100.00;96138.94;4923735;28;20044;-66
2022/10/10 02:10:25;;;;;;;23.27;8.30;;;10.70;82.20;;;8.97;100.00;96139.75;4878162;28;20040;-66
2022/10/10 02:12:51;;;;;;;31.42;8.57;;;10.70;82.20;;;8.96;100.00;96138.94;4897417;28;20048;-67
2022/10/10 02:15:21;;;;;;;26.35;8.50;;;10.70;82.40;;;8.98;100.00;96142.22;4902300;28;20623;-66
2022/10/10 02:17:47;;;;;;;27.13;9.00;;;10.70;82.20;;;8.99;100.00;96137.78;4891318;28;20047;-66
2022/10/10 02:20:15;;;;;;;24.98;8.40;;;10.70;82.50;;;9.01;100.00;96141.03;4879423;28;20123;-67
2022/10/10 02:22:40;;;;;;;29.20;9.80;;;10.70;82.60;;;9.03;100.00;96149.53;4903007;29;20140;-67
2022/10/10 02:25:07;;;;;;;35.75;16.35;;;10.70;82.70;;;9.03;100.00;96139.88;4902334;29;20070;-66
2022/10/10 02:27:46;;;;;;;46.10;22.50;;;10.80;82.80;;;9.05;100.00;96143.16;4904291;28;20044;-66
2022/10/10 02:30:12;;;;;;;60.00;34.88;;;10.80;83.00;;;9.06;100.00;96147.41;4901263;28;22084;-67
2022/10/10 02:32:42;;;;;;;43.85;18.75;;;10.80;83.10;;;9.08;100.00;96137.53;4908296;28;20060;-67
2022/10/10 02:35:12;;;;;;;47.90;22.30;;;10.80;83.10;;;9.10;100.00;96134.75;4890563;28;20040;-66
2022/10/10 02:37:38;;;;;;;51.80;24.90;;;10.80;83.10;;;9.09;100.00;96139.16;4910563;28;20118;-66
2022/10/10 02:40:05;;;;;;;66.28;37.53;;;10.80;83.30;;;9.10;100.00;96140.00;4886235;28;20032;-67
2022/10/10 02:42:31;;;;;;;41.83;24.42;;;10.80;83.40;;;9.10;100.00;96140.81;4891293;28;20051;-68
2022/10/10 02:44:57;;;;;;;32.45;13.48;;;10.80;83.30;;;9.11;100.00;96139.81;4916172;28;20068;-66
2022/10/10 02:47:22;;;;;;;25.63;10.88;;;10.80;83.40;;;9.12;100.00;96138.00;4893328;28;20076;-67
2022/10/10 02:49:49;;;;;;;31.00;11.50;;;10.90;83.50;;;9.13;100.00;96135.19;4890978;28;20182;-67
2022/10/10 02:52:15;;;;;;;27.67;11.32;;;10.90;83.50;;;9.16;100.00;96140.06;4926307;28;20063;-66
2022/10/10 02:54:40;;;;;;;32.95;11.63;;;10.90;83.70;;;9.17;100.00;96144.31;4917227;28;20056;-66
2022/10/10 02:57:06;;;;;;;32.40;11.32;;;10.90;83.70;;;9.19;100.00;96139.72;4926594;28;20044;-66
2022/10/10 02:59:32;;;;;;;27.25;10.55;;;10.90;83.90;;;9.21;100.00;96142.16;4959958;28;20059;-66
2022/10/10 03:01:58;;;;;;;34.65;11.93;;;10.90;83.90;;;9.21;100.00;96142.16;4899637;28;20111;-67
2022/10/10 03:04:23;;;;;;;38.33;11.68;;;10.90;84.10;;;9.21;100.00;96148.22;4892268;28;20126;-67
2022/10/10 03:06:49;;;;;;;29.10;11.52;;;10.90;83.90;;;9.21;100.00;96148.22;4910987;28;20037;-66
2022/10/10 03:09:15;;;;;;;60.38;33.33;;;10.90;84.00;;;9.22;100.00;96143.78;4967086;28;20125;-67
2022/10/10 03:11:41;;;;;;;48.40;23.13;;;10.90;84.00;;;9.19;100.00;96144.97;4906563;29;20066;-66
2022/10/10 03:14:06;;;;;;;34.13;15.93;;;10.90;83.90;;;9.18;100.00;96148.59;4916582;28;20123;-66
2022/10/10 03:16:32;;;;;;;33.30;12.15;;;10.90;84.00;;;9.18;100.00;96143.34;4907886;28;20036;-67
2022/10/10 03:18:58;;;;;;;36.20;11.88;;;10.80;83.80;;;9.16;100.00;96145.31;4940648;28;20463;-66
2022/10/10 03:21:24;;;;;;;34.80;12.25;;;10.80;83.90;;;9.15;100.00;96142.88;4914325;28;20599;-66
2022/10/10 03:23:49;;;;;;;40.28;14.95;;;10.80;84.10;;;9.13;100.00;96140.44;4929754;28;20098;-67
2022/10/10 03:26:15;;;;;;;35.05;14.82;;;10.80;84.20;;;9.12;100.00;96144.06;4909864;28;20131;-67
2022/10/10 03:28:41;;;;;;;39.40;15.48;;;10.70;84.20;;;9.09;100.00;96140.97;4916613;28;20118;-67
2022/10/10 03:31:07;;;;;;;44.50;20.17;;;10.80;84.40;;;9.11;100.00;96147.69;4908547;28;20212;-66
2022/10/10 03:33:33;;;;;;;34.88;16.40;;;10.80;84.30;;;9.14;100.00;96139.44;4968336;28;20067;-66
2022/10/10 03:35:59;;;;;;;61.28;35.75;;;10.90;84.50;;;9.15;100.00;96135.81;4903381;28;20036;-66
2022/10/10 03:38:25;;;;;;;41.15;20.27;;;10.90;84.60;;;9.19;100.00;96134.47;4902201;28;20070;-66
2022/10/10 03:40:50;;;;;;;31.65;14.40;;;11.00;84.70;;;9.24;100.00;96140.97;4896002;28;20060;-66
2022/10/10 03:43:16;;;;;;;33.67;15.82;;;11.00;85.00;;;9.26;100.00;96139.00;4897762;28;20071;-66
2022/10/10 03:45:43;;;;;;;33.30;15.93;;;11.00;85.70;;;9.27;100.00;96140.63;4895157;28;20411;-68
2022/10/10 03:48:09;;;;;;;39.60;18.15;;;11.00;86.10;;;9.27;100.00;96138.00;4878542;28;20611;-67
2022/10/10 03:50:35;;;;;;;33.22;16.98;;;10.90;86.50;;;9.28;100.00;96147.50;4892996;28;20032;-64
2022/10/10 03:53:01;;;;;;;47.42;20.63;;;10.90;87.00;;;9.28;100.00;96147.50;4886832;28;20045;-65
2022/10/10 03:55:27;;;;;;;41.25;19.50;;;10.90;87.60;;;9.30;100.00;96145.53;4894103;28;20039;-65
2022/10/10 03:57:53;;;;;;;43.08;20.42;;;11.00;87.80;;;9.32;100.00;96146.97;4891287;28;20080;-66
2022/10/10 04:00:18;;;;;;;42.78;21.00;;;11.00;87.80;;;9.33;100.00;96140.75;4896983;28;20128;-66
2022/10/10 04:02:44;;;;;;;40.65;20.23;;;11.00;88.00;;;9.36;100.00;96144.81;4932926;28;20136;-66
2022/10/10 04:05:10;;;;;;;37.65;20.98;;;11.10;88.10;;;9.38;100.00;96137.56;4902711;28;20091;-65
2022/10/10 04:07:36;;;;;;;35.20;19.95;;;11.00;88.30;;;9.41;100.00;96131.94;4910594;29;20028;-66
2022/10/10 04:10:02;;;;;;;35.60;20.58;;;11.10;88.20;;;9.44;100.00;96147.34;4909292;28;20060;-65
2022/10/10 04:12:27;;;;;;;31.13;19.17;;;11.10;88.20;;;9.46;100.00;96142.72;4940258;28;20038;-65
2022/10/10 04:14:53;;;;;;;37.72;20.00;;;11.10;88.30;;;9.48;100.00;96138.91;4937441;28;20080;-65
2022/10/10 04:17:19;;;;;;;28.95;19.10;;;11.10;88.20;;;9.51;100.00;96150.88;4903050;28;20059;-65
2022/10/10 04:19:45;;;;;;;31.90;19.42;;;11.20;88.30;;;9.54;100.00;96142.66;4894698;28;20507;-66
2022/10/10 04:22:11;;;;;;;31.50;19.70;;;11.20;88.20;;;9.57;100.00;96137.03;4901184;29;20558;-67
2022/10/10 04:24:37;;;;;;;34.17;18.75;;;11.30;88.10;;;9.60;100.00;96136.66;4910438;29;20044;-66
2022/10/10 04:27:02;;;;;;;33.97;19.67;;;11.30;88.00;;;9.62;100.00;96131.22;4894186;29;20631;-66
2022/10/10 04:29:28;;;;;;;31.58;18.25;;;11.40;87.90;;;9.65;100.00;96139.56;4915023;29;20052;-66
2022/10/10 04:31:54;;;;;;;36.55;19.92;;;11.40;87.80;;;9.68;100.00;96139.19;4891623;29;20049;-66
2022/10/10 04:34:20;;;;;;;32.53;19.45;;;11.50;87.70;;;9.71;100.00;96133.56;4890957;28;20551;-66
2022/10/10 04:36:45;;;;;;;28.63;18.00;;;11.50;87.50;;;9.73;100.00;96136.84;4891572;29;20068;-66
2022/10/10 04:39:11;;;;;;;28.48;18.88;;;11.50;87.40;;;9.76;100.00;96133.84;4892388;28;20068;-66
2022/10/10 04:41:37;;;;;;;27.90;17.50;;;11.60;87.40;;;9.76;100.00;96136.47;4891586;29;20084;-66
2022/10/10 04:44:02;;;;;;;36.55;20.08;;;11.50;87.40;;;9.79;100.00;96136.13;4906844;28;20065;-65
2022/10/10 04:46:28;;;;;;;34.65;18.52;;;11.50;87.50;;;9.79;100.00;96136.13;4898326;29;20055;-66
2022/10/10 04:48:54;;;;;;;40.10;20.02;;;11.50;87.50;;;9.80;100.00;96136.94;4941221;28;20070;-66
2022/10/10 04:51:20;;;;;;;29.75;18.67;;;11.50;87.30;;;9.82;100.00;96138.38;4893087;28;20057;-66
2022/10/10 04:53:45;;;;;;;28.77;17.55;;;11.50;87.30;;;9.83;100.00;96141.81;4907565;29;20129;-66
2022/10/10 04:56:11;;;;;;;25.77;16.60;;;11.50;87.50;;;9.85;100.00;96144.25;4909272;28;20118;-66
2022/10/10 04:58:37;;;;;;;28.23;17.35;;;11.50;87.20;;;9.85;100.00;96144.25;4912112;29;20075;-66
2022/10/10 05:01:03;;;;;;;28.15;17.05;;;11.60;87.30;;;9.87;100.00;96144.88;4901856;29;20082;-65
2022/10/10 05:03:28;;;;;;;29.50;17.85;;;11.60;87.20;;;9.89;100.00;96140.25;4910033;29;20114;-66
2022/10/10 05:05:54;;;;;;;28.48;17.30;;;11.60;87.40;;;9.91;100.00;96138.25;4909573;29;20130;-66
2022/10/10 05:08:20;;;;;;;28.98;17.35;;;11.60;87.20;;;9.91;100.00;96139.06;4915199;28;20036;-66
2022/10/10 05:10:46;;;;;;;32.45;19.20;;;11.60;87.30;;;9.92;100.00;96134.63;4927313;28;20047;-66
2022/10/10 05:13:13;;;;;;;27.85;17.95;;;11.50;87.60;;;9.92;100.00;96138.06;4906600;28;20563;-66
2022/10/10 05:15:39;;;;;;;29.30;18.52;;;11.60;87.60;;;9.93;100.00;96136.25;4925622;29;20119;-67
2022/10/10 05:18:05;;;;;;;28.90;17.27;;;11.50;87.80;;;9.93;100.00;96136.25;4924806;29;20522;-65
2022/10/10 05:20:31;;;;;;;27.85;17.48;;;11.60;87.70;;;9.95;100.00;96144.78;4887790;28;20043;-66
2022/10/10 05:22:57;;;;;;;24.70;17.55;;;11.60;87.70;;;9.96;100.00;96147.25;4901511;28;20060;-65
2022/10/10 05:25:22;;;;;;;31.92;18.77;;;11.70;87.60;;;9.97;100.00;96148.88;4909461;29;20530;-66
2022/10/10 05:27:48;;;;;;;32.50;18.67;;;11.60;87.60;;;10.00;100.00;96150.31;4909330;29;20520;-66
2022/10/10 05:30:14;;;;;;;27.27;17.45;;;11.70;87.50;;;10.02;100.00;96150.94;4936379;28;20040;-65
2022/10/10 05:32:40;;;;;;;27.15;19.10;;;11.70;87.40;;;10.04;100.00;96141.06;4923627;28;20059;-66
2022/10/10 05:35:06;;;;;;;26.02;17.20;;;11.80;87.30;;;10.04;100.00;96154.19;4901541;28;20044;-66
2022/10/10 05:37:32;;;;;;;23.88;17.35;;;11.70;87.40;;;10.04;100.00;96154.19;4909332;28;20032;-66
2022/10/10 05:39:58;;;;;;;30.35;17.63;;;11.70;87.50;;;10.04;100.00;96155.00;4906013;29;20523;-66
2022/10/10 05:42:24;;;;;;;28.70;19.10;;;11.70;87.70;;;10.06;100.00;96157.44;4894986;28;20072;-66
2022/10/10 05:44:49;;;;;;;28.05;19.17;;;11.70;87.50;;;10.05;100.00;96155.81;4901320;29;20116;-65
2022/10/10 05:47:15;;;;;;;24.33;18.60;;;11.70;87.90;;;10.06;100.00;96157.44;4909309;29;20056;-67
2022/10/10 05:49:41;;;;;;;22.05;17.10;;;11.70;87.80;;;10.07;100.00;96159.09;4909106;29;20123;-66
2022/10/10 05:52:07;;;;;;;22.35;16.40;;;11.80;87.80;;;10.08;100.00;96150.19;4908302;29;20123;-66
2022/10/10 05:54:32;;;;;;;22.45;17.13;;;11.80;87.70;;;10.08;100.00;96144.94;4925020;28;20135;-66
2022/10/10 05:56:58;;;;;;;23.23;15.23;;;11.70;87.70;;;10.10;100.00;96150.81;4909399;29;20124;-66
2022/10/10 05:59:24;;;;;;;18.77;14.65;;;11.70;87.60;;;10.10;100.00;96146.38;4908745;29;20101;-66
2022/10/10 06:01:50;;;;;;;18.80;14.13;;;11.80;87.60;;;10.16;100.00;96146.63;4908602;29;20040;-66
2022/10/10 06:04:16;;;;;;;18.98;15.85;;;11.90;87.20;;;10.20;100.00;96151.34;4940387;28;20143;-66
2022/10/10 06:06:41;;;;;;;20.65;15.75;;;12.00;87.20;;;10.23;100.00;96153.66;4874872;28;20035;-66
2022/10/10 06:09:07;;;;;;;17.25;14.45;;;12.00;87.20;;;10.28;100.00;96155.72;4874498;29;20036;-66
2022/10/10 06:11:34;;;;;;;21.80;15.50;;;12.10;87.00;;;10.32;100.00;96160.41;4905812;28;20055;-66
2022/10/10 06:14:00;;;;;;;21.42;15.52;;;12.10;86.80;;;10.35;100.00;96156.59;4903279;28;20044;-65
2022/10/10 06:16:26;;;;;;;24.13;15.57;;;12.20;86.90;;;10.42;100.00;96160.94;4893842;28;20063;-66
2022/10/10 06:18:52;;;;;;;23.17;16.42;;;12.30;86.60;;;10.48;100.00;96161.19;4896028;29;20036;-66
2022/10/10 06:21:18;;;;;;;24.48;16.30;;;12.30;86.20;;;10.51;100.00;96164.25;4896549;29;20479;-66
2022/10/10 06:23:44;;;;;;;29.15;16.02;;;12.30;86.10;;;10.52;100.00;96167.69;4895605;29;20047;-66
2022/10/10 06:26:09;;;;;;;27.27;16.17;;;12.20;86.10;;;10.52;100.00;96168.50;4896252;29;20111;-66
2022/10/10 06:28:35;;;;;;;19.80;15.32;;;12.20;86.00;;;10.54;100.00;96177.03;4893225;28;20408;-66
2022/10/10 06:31:03;;;;;;;18.88;14.15;;;12.20;86.20;;;10.58;100.00;96182.72;4893358;29;20443;-66
2022/10/10 06:33:29;;;;;;;17.83;13.77;;;12.40;85.80;;;10.61;100.00;96182.34;4893996;29;20044;-66
2022/10/10 06:35:55;;;;;;;21.75;15.52;;;12.40;85.80;;;10.66;100.00;96177.38;4898531;29;20087;-66
2022/10/10 06:38:21;;;;;;;18.05;15.18;;;12.50;85.60;;;10.70;100.00;96181.25;4901585;28;20051;-65
2022/10/10 06:40:46;;;;;;;16.50;13.77;;;12.50;85.50;;;10.69;100.00;96180.44;4919803;28;20049;-66
2022/10/10 06:43:13;;;;;;;17.85;13.93;;;12.40;85.50;;;10.73;100.00;96186.94;4938505;28;20590;-67
2022/10/10 06:45:42;;;;;;;17.50;14.05;;;12.60;85.20;;;10.79;100.00;96184.56;4904667;28;20024;-66
2022/10/10 06:48:08;;;;;;;18.60;13.60;;;12.60;85.10;;;10.84;100.00;96193.50;4911485;29;20075;-65
2022/10/10 06:50:34;;;;;;;20.63;12.57;;;12.70;84.70;;;10.88;100.00;96194.78;4932895;28;20028;-66
2022/10/10 06:52:59;;;;;;;21.15;11.82;;;12.70;84.40;;;10.93;100.00;96194.22;4897422;28;20424;-66
2022/10/10 06:55:25;;;;;;;12.60;10.38;;;12.80;84.10;;;11.00;100.00;96187.19;4892832;28;20124;-66
2022/10/10 06:57:51;;;;;;;11.93;10.20;;;12.90;83.90;;;11.06;100.00;96189.06;4893814;29;20028;-66
2022/10/10 07:00:17;;;;;;;13.40;11.27;;;13.00;83.40;;;11.11;100.00;96189.31;4966594;28;20167;-66
2022/10/10 07:02:43;;;;;;;15.98;12.07;;;13.00;83.40;;;11.17;100.00;96198.28;4895952;29;20089;-66
2022/10/10 07:05:10;;;;;;;15.10;11.73;;;13.10;83.10;;;11.24;100.00;96199.13;4911609;29;20539;-67
2022/10/10 07:07:37;;;;;;;16.83;11.27;;;13.20;82.80;;;11.27;100.00;96204.81;4895782;29;20052;-67
2022/10/10 07:10:04;;;;;;;12.63;11.15;;;13.10;82.30;;;11.31;100.00;96203.44;4940491;28;20708;-68
2022/10/10 07:12:30;;;;;;;31.02;24.73;;;13.20;82.10;;;11.37;100.00;96212.41;4918450;28;20127;-67
2022/10/10 07:14:56;;;;;;;12.25;10.68;;;13.40;81.90;;;11.42;100.00;96207.38;4892520;28;20060;-67
2022/10/10 07:17:21;;;;;;;9.30;8.32;;;13.40;81.50;;;11.47;100.00;96210.25;4903274;28;20064;-67
2022/10/10 07:19:47;;;;;;;10.52;8.98;;;13.50;81.10;;;11.51;100.00;96214.13;4910396;28;20071;-67
2022/10/10 07:22:13;;;;;;;12.02;10.80;;;13.50;80.80;;;11.58;100.00;96215.00;4894896;28;20071;-67
2022/10/10 07:24:39;;;;;;;13.20;11.68;;;13.60;80.70;;;11.64;100.00;96211.59;4892498;28;20043;-67
2022/10/10 07:27:05;;;;;;;10.65;8.80;;;13.70;80.10;;;11.70;100.00;96211.81;4984178;28;20044;-68
2022/10/10 07:29:31;;;;;;;9.13;7.85;;;13.70;79.80;;;11.76;100.00;96216.31;4899794;29;20404;-68
2022/10/10 07:31:57;;;;;;;11.95;9.48;;;13.80;79.50;;;11.83;100.00;96219.84;4892446;29;20029;-68
2022/10/10 07:34:22;;;;;;;8.57;7.70;;;13.90;79.20;;;11.90;100.00;96220.69;4907380;29;20131;-67
2022/10/10 07:36:49;;;;;;;7.10;6.40;;;14.10;78.80;;;11.98;100.00;96220.53;4901109;29;20119;-68
2022/10/10 07:39:22;;;;;;;9.27;7.68;;;14.20;77.90;;;12.09;100.00;96220.00;4900012;29;20040;-68
2022/10/10 07:41:48;;;;;;;5.30;4.80;;;14.40;77.30;;;12.19;100.00;96225.72;4898898;29;20206;-68
2022/10/10 07:44:14;;;;;;;5.90;5.22;;;14.60;76.30;;;12.26;100.00;96226.59;4891440;28;20032;-69
2022/10/10 07:46:40;;;;;;;5.60;4.78;;;14.60;76.10;;;12.36;100.00;96228.03;4910425;28;20508;-67
2022/10/10 07:49:05;;;;;;;11.38;7.97;;;14.60;75.70;;;12.43;100.00;96234.13;4947913;28;20090;-68
2022/10/10 07:51:31;;;;;;;8.68;7.38;;;14.70;75.70;;;12.52;100.00;96231.16;4912148;29;20052;-67
2022/10/10 07:53:57;;;;;;;5.60;5.00;;;14.90;75.60;;;12.64;100.00;96234.00;4910862;28;20064;-67
2022/10/10 07:56:23;;;;;;;5.25;4.75;;;15.00;74.50;;;12.77;100.00;96234.06;4925276;29;20075;-67
2022/10/10 07:58:49;;;;;;;5.15;4.40;;;15.20;73.90;;;12.90;100.00;96235.94;4901509;28;20041;-68
2022/10/10 08:01:15;;;;;;;4.63;4.00;;;15.50;73.30;;;13.04;100.00;96239.41;4932257;28;20107;-69
2022/10/10 08:03:41;;;;;;;6.35;4.28;;;15.80;72.50;;;13.21;100.00;96234.59;4888123;29;20059;-68
2022/10/10 08:06:09;;;;;;;5.03;4.05;;;16.00;71.40;;;13.34;100.00;96224.00;4909658;28;20043;-67
2022/10/10 08:08:35;;;;;;;5.80;4.30;;;16.10;70.70;;;13.48;100.00;96221.19;4883630;28;20041;-68
2022/10/10 08:11:04;;;;;;;4.65;4.00;;;16.40;70.10;;;13.66;100.00;96233.78;4876322;28;20095;-67
2022/10/10 08:13:30;;;;;;;4.72;4.18;;;16.70;69.70;;;13.85;100.00;96229.50;4891744;28;20057;-67
2022/10/10 08:15:56;;;;;;;7.22;4.07;;;17.00;69.40;;;14.03;100.00;96229.66;4876202;29;20065;-68
2022/10/10 08:18:21;;;;;;;4.65;3.75;;;17.10;67.80;;;14.25;100.00;96232.00;4904935;28;20123;-68
2022/10/10 08:20:56;;;;;;;6.18;4.20;;;17.40;67.10;;;14.43;100.00;96234.00;4898785;29;20077;-68
2022/10/10 08:23:22;;;;;;;5.07;3.70;;;17.60;66.20;;;14.61;100.00;96229.69;4910416;28;20098;-67
2022/10/10 08:25:47;;;;;;;5.03;3.67;;;17.80;65.60;;;14.82;100.00;96225.09;4925667;29;20345;-67
2022/10/10 08:28:13;;;;;;;5.38;3.65;;;18.10;64.80;;;15.01;100.00;96232.13;4941702;28;20513;-68
2022/10/10 08:30:40;;;;;;;5.10;3.47;;;18.40;64.10;;;15.21;100.00;96237.31;4898757;29;20057;-68
2022/10/10 08:33:06;;;;;;;4.60;3.22;;;18.60;63.10;;;15.39;100.00;96228.59;4891684;28;20036;-68
2022/10/10 08:35:36;;;;;;;6.68;3.63;;;18.80;62.50;;;15.57;100.00;96232.13;4906995;28;20032;-68
2022/10/10 08:38:02;;;;;;;3.20;2.90;;;19.00;62.30;;;15.76;100.00;96229.53;4925885;28;20115;-67
2022/10/10 08:40:27;;;;;;;3.08;2.78;;;19.10;61.90;;;15.96;100.00;96229.34;4899067;29;20464;-68
2022/10/10 08:42:53;;;;;;;3.42;2.90;;;19.40;61.00;;;16.16;100.00;96237.94;4875927;28;20580;-67
2022/10/10 08:45:23;;;;;;;4.07;2.70;;;19.50;60.60;;;16.30;100.00;96226.16;4891373;28;20052;-68
2022/10/10 08:48:06;;;;;;;6.95;3.00;;;19.60;59.90;;;16.48;99.87;96236.75;4921952;28;20044;-68
2022/10/10 08:50:39;;;;;;;3.67;2.78;;;19.80;59.00;;;16.69;100.00;96234.69;4878368;29;20130;-67
2022/10/10 08:53:22;;;;;;;4.32;2.85;;;20.10;58.90;;;16.87;99.62;96237.31;4894813;29;20158;-67
2022/10/10 08:55:47;;;;;;;4.68;3.30;;;20.40;58.70;;;17.06;100.00;96236.25;4910767;29;20055;-67
2022/10/10 08:58:13;;;;;;;5.72;2.45;;;20.70;57.70;;;17.28;100.00;96227.75;4885609;28;20410;-67
2022/10/10 09:01:10;;;;;;;4.03;2.70;;;21.00;56.60;;;17.49;94.47;96234.38;4911161;28;20369;-68
2022/10/10 09:03:45;;;;;;;4.18;2.80;;;21.10;55.80;;;17.68;96.36;96226.13;4896953;28;20032;-68
2022/10/10 09:06:26;;;;;;;5.68;2.58;;;21.50;55.30;;;17.90;97.25;96229.03;4908359;29;20559;-65
2022/10/10 09:09:19;;;;;;;4.25;2.58;;;21.90;54.10;;;18.30;90.69;96231.75;4963509;28;20057;-65
2022/10/10 09:12:13;;;;;;;5.80;2.35;;;22.90;51.80;;;18.74;87.64;96236.66;4892241;29;20381;-65
2022/10/10 09:14:56;;;;;;;3.33;2.47;;;23.10;50.60;;;19.01;88.39;96234.22;4890562;29;20028;-65
2022/10/10 09:17:44;;;;;;;4.13;2.25;;;23.50;49.70;;;19.35;84.06;96233.25;4930614;28;20546;-68
2022/10/10 09:20:46;;;;;;;7.60;2.45;;;23.80;48.20;;;19.56;79.70;96229.91;4906611;28;20463;-66
2022/10/10 09:23:30;;;;;;;4.88;2.25;;;23.50;47.60;;;19.70;81.09;96234.94;4925255;28;20079;-65
2022/10/10 09:26:02;;;;;;;4.38;2.45;;;23.50;48.50;;;19.88;80.62;96232.00;4925325;28;20038;-66
2022/10/10 09:28:39;;;;;;;5.10;3.28;;;24.00;46.70;;;20.15;78.87;96226.81;4896384;28;20055;-65
2022/10/10 09:31:27;;;;;;;5.78;3.28;;;25.10;45.50;;;20.53;79.02;96228.66;4909809;28;20056;-65
2022/10/10 09:34:18;;;;;;;5.32;2.60;;;25.90;44.10;;;20.96;76.55;96233.16;4912162;29;20040;-66
2022/10/10 09:36:44;;;;;;;2.65;1.60;;;27.50;40.80;;;21.47;82.07;96232.88;4940454;28;20095;-66
2022/10/10 09:39:20;;;;;;;5.20;1.90;;;28.00;40.10;;;21.84;74.59;96217.69;4897223;29;20508;-66
2022/10/10 09:41:59;;;;;;;3.15;1.95;;;28.00;39.90;;;22.43;71.05;96212.19;4897578;29;20033;-66
2022/10/10 09:44:25;;;;;;;7.13;2.28;;;30.70;35.60;;;23.21;78.64;96223.72;4890186;28;20040;-66
2022/10/10 09:46:51;;;;;;;5.78;1.98;;;32.90;32.00;;;23.96;76.87;96217.84;4901405;29;20083;-67
2022/10/10 09:49:17;;;;;;;4.22;1.90;;;33.50;31.00;;;24.36;74.29;96208.94;4884452;29;20068;-66
2022/10/10 09:51:44;;;;;;;4.70;1.50;;;32.60;31.20;;;24.80;72.22;96208.22;4907078;29;20033;-66
2022/10/10 09:54:11;;;;;;;3.53;1.60;;;33.10;30.90;;;25.18;70.38;96214.78;4893115;29;20033;-66
2022/10/10 09:56:44;;;;;;;4.18;1.50;;;33.10;31.10;;;25.58;61.45;96216.41;4918016;28;20051;-66
2022/10/10 09:59:43;;;;;;;4.18;1.52;;;32.70;31.70;;;25.82;58.16;96213.81;4916433;29;20024;-66
2022/10/10 10:02:18;;;;;;;4.70;1.50;;;31.70;33.00;;;25.72;57.09;96220.06;4908680;28;20078;-66
2022/10/10 10:04:45;;;;;;;5.53;1.80;;;30.40;33.70;;;25.52;62.45;96220.19;4913956;29;20036;-67
2022/10/10 10:07:30;;;;;;;5.13;1.77;;;29.50;35.70;;;25.30;57.04;96220.63;4912453;28;20098;-67
2022/10/10 10:09:59;;;;;;;3.15;1.67;;;29.10;36.50;;;25.04;61.51;96225.34;4960604;28;20078;-68
2022/10/10 10:12:35;;;;;;;4.57;1.70;;;28.70;36.80;;;24.79;58.87;96225.47;4942623;28;20113;-67
2022/10/10 10:15:05;;;;;;;4.07;1.73;;;28.60;37.70;;;24.62;59.74;96223.09;4878698;28;20083;-66
2022/10/10 10:17:31;;;;;;;6.60;1.80;;;28.30;38.20;;;24.69;61.49;96224.44;4877857;28;20040;-67
2022/10/10 10:19:56;;;;;;;6.63;1.90;;;30.00;35.40;;;24.98;61.25;96227.25;4888607;28;20296;-66